sensor_id;sensor_type;location;lat;lon;timestamp;pressure;altitude;pressure_sealevel;temperature;humidity
72855;BME280;60991;51.278;22.550;2023-05-07T00:00:29;99459.50;;;7.26;76.10
72855;BME280;60991;51.278;22.550;2023-05-07T00:02:00;99459.28;;;7.27;76.02
72855;BME280;60991;51.278;22.550;2023-05-07T00:03:30;99460.25;;;7.33;76.11
72855;BME280;60991;51.278;22.550;2023-05-07T00:05:01;99459.88;;;7.29;75.92
72855;BME280;60991;51.278;22.550;2023-05-07T00:06:32;99452.97;;;7.28;75.97
72855;BME280;60991;51.278;22.550;2023-05-07T00:08:02;99446.50;;;7.24;76.49
72855;BME280;60991;51.278;22.550;2023-05-07T00:09:32;99438.66;;;7.18;76.52
72855;BME280;60991;51.278;22.550;2023-05-07T00:11:03;99444.59;;;7.07;76.10
72855;BME280;60991;51.278;22.550;2023-05-07T00:12:33;99446.81;;;7.10;76.59
72855;BME280;60991;51.278;22.550;2023-05-07T00:14:03;99447.22;;;7.07;76.61
72855;BME280;60991;51.278;22.550;2023-05-07T00:15:34;99452.50;;;7.07;76.60
72855;BME280;60991;51.278;22.550;2023-05-07T00:17:04;99447.63;;;7.10;76.08
72855;BME280;60991;51.278;22.550;2023-05-07T00:18:34;99449.88;;;7.07;76.19
72855;BME280;60991;51.278;22.550;2023-05-07T00:20:04;99448.44;;;7.11;76.52
72855;BME280;60991;51.278;22.550;2023-05-07T00:21:35;99435.50;;;7.03;76.49
72855;BME280;60991;51.278;22.550;2023-05-07T00:23:05;99433.22;;;7.06;76.97
72855;BME280;60991;51.278;22.550;2023-05-07T00:24:35;99434.69;;;7.02;77.10
72855;BME280;60991;51.278;22.550;2023-05-07T00:26:05;99429.41;;;7.02;76.81
72855;BME280;60991;51.278;22.550;2023-05-07T00:27:36;99433.47;;;7.05;76.58
72855;BME280;60991;51.278;22.550;2023-05-07T00:29:06;99425.28;;;7.13;76.43
72855;BME280;60991;51.278;22.550;2023-05-07T00:30:36;99430.72;;;7.18;76.41
72855;BME280;60991;51.278;22.550;2023-05-07T00:32:06;99433.56;;;7.16;75.80
72855;BME280;60991;51.278;22.550;2023-05-07T00:33:38;99438.00;;;7.22;76.12
72855;BME280;60991;51.278;22.550;2023-05-07T00:35:08;99437.63;;;7.19;75.28
72855;BME280;60991;51.278;22.550;2023-05-07T00:36:38;99442.31;;;7.17;75.79
72855;BME280;60991;51.278;22.550;2023-05-07T00:38:09;99435.66;;;7.08;76.34
72855;BME280;60991;51.278;22.550;2023-05-07T00:39:39;99446.69;;;6.98;76.45
72855;BME280;60991;51.278;22.550;2023-05-07T00:41:09;99445.25;;;7.02;76.01
72855;BME280;60991;51.278;22.550;2023-05-07T00:42:39;99447.81;;;7.09;76.28
72855;BME280;60991;51.278;22.550;2023-05-07T00:44:10;99444.38;;;7.08;75.84
72855;BME280;60991;51.278;22.550;2023-05-07T00:45:40;99439.69;;;7.10;76.04
72855;BME280;60991;51.278;22.550;2023-05-07T00:47:11;99449.66;;;7.08;76.31
72855;BME280;60991;51.278;22.550;2023-05-07T00:48:41;99441.75;;;7.08;76.76
72855;BME280;60991;51.278;22.550;2023-05-07T00:50:11;99440.50;;;7.11;75.88
72855;BME280;60991;51.278;22.550;2023-05-07T00:51:42;99449.06;;;7.06;76.77
72855;BME280;60991;51.278;22.550;2023-05-07T00:53:13;99443.41;;;7.03;76.53
72855;BME280;60991;51.278;22.550;2023-05-07T00:54:44;99445.06;;;6.97;76.85
72855;BME280;60991;51.278;22.550;2023-05-07T00:56:14;99446.47;;;7.00;76.20
72855;BME280;60991;51.278;22.550;2023-05-07T00:57:45;99447.50;;;6.99;76.18
72855;BME280;60991;51.278;22.550;2023-05-07T00:59:16;99452.22;;;6.90;76.77
72855;BME280;60991;51.278;22.550;2023-05-07T01:00:46;99457.88;;;6.93;76.51
72855;BME280;60991;51.278;22.550;2023-05-07T01:02:16;99447.91;;;6.95;76.47
72855;BME280;60991;51.278;22.550;2023-05-07T01:03:46;99446.09;;;6.96;76.59
72855;BME280;60991;51.278;22.550;2023-05-07T01:05:19;99449.94;;;7.00;76.65
72855;BME280;60991;51.278;22.550;2023-05-07T01:06:53;99452.38;;;6.95;76.50
72855;BME280;60991;51.278;22.550;2023-05-07T01:08:24;99458.91;;;6.92;76.57
72855;BME280;60991;51.278;22.550;2023-05-07T01:09:55;99458.25;;;6.97;75.96
72855;BME280;60991;51.278;22.550;2023-05-07T01:11:26;99456.22;;;6.99;76.27
72855;BME280;60991;51.278;22.550;2023-05-07T01:12:58;99457.22;;;7.05;76.27
72855;BME280;60991;51.278;22.550;2023-05-07T01:14:29;99457.78;;;7.07;75.62
72855;BME280;60991;51.278;22.550;2023-05-07T01:15:59;99452.47;;;7.13;75.80
72855;BME280;60991;51.278;22.550;2023-05-07T01:17:33;99454.91;;;7.15;75.72
72855;BME280;60991;51.278;22.550;2023-05-07T01:19:03;99449.06;;;7.06;75.79
72855;BME280;60991;51.278;22.550;2023-05-07T01:20:34;99450.13;;;6.99;75.83
72855;BME280;60991;51.278;22.550;2023-05-07T01:22:09;99449.75;;;6.95;75.78
72855;BME280;60991;51.278;22.550;2023-05-07T01:23:39;99446.66;;;7.05;76.02
72855;BME280;60991;51.278;22.550;2023-05-07T01:25:09;99441.94;;;7.07;75.63
72855;BME280;60991;51.278;22.550;2023-05-07T01:26:40;99452.09;;;7.10;75.80
72855;BME280;60991;51.278;22.550;2023-05-07T01:28:10;99449.41;;;7.16;75.28
72855;BME280;60991;51.278;22.550;2023-05-07T01:29:40;99451.06;;;7.11;75.09
72855;BME280;60991;51.278;22.550;2023-05-07T01:31:12;99448.84;;;7.08;75.43
72855;BME280;60991;51.278;22.550;2023-05-07T01:32:49;99447.44;;;7.05;75.61
72855;BME280;60991;51.278;22.550;2023-05-07T01:34:21;99448.31;;;6.99;76.13
72855;BME280;60991;51.278;22.550;2023-05-07T01:35:53;99460.00;;;7.10;75.46
72855;BME280;60991;51.278;22.550;2023-05-07T01:37:24;99461.25;;;7.07;75.67
72855;BME280;60991;51.278;22.550;2023-05-07T01:38:55;99461.09;;;7.02;75.74
72855;BME280;60991;51.278;22.550;2023-05-07T01:40:27;99451.56;;;7.01;75.97
72855;BME280;60991;51.278;22.550;2023-05-07T01:41:58;99455.03;;;6.95;75.94
72855;BME280;60991;51.278;22.550;2023-05-07T01:43:30;99456.47;;;6.91;75.91
72855;BME280;60991;51.278;22.550;2023-05-07T01:45:00;99459.28;;;6.96;76.33
72855;BME280;60991;51.278;22.550;2023-05-07T01:46:31;99457.25;;;6.98;76.28
72855;BME280;60991;51.278;22.550;2023-05-07T01:48:03;99458.88;;;6.99;75.56
72855;BME280;60991;51.278;22.550;2023-05-07T01:49:34;99459.06;;;6.98;76.27
72855;BME280;60991;51.278;22.550;2023-05-07T01:51:04;99459.53;;;6.88;76.41
72855;BME280;60991;51.278;22.550;2023-05-07T01:52:38;99462.75;;;6.90;75.89
72855;BME280;60991;51.278;22.550;2023-05-07T01:54:09;99462.56;;;6.91;76.20
72855;BME280;60991;51.278;22.550;2023-05-07T01:55:39;99455.44;;;6.92;76.31
72855;BME280;60991;51.278;22.550;2023-05-07T01:57:09;99467.41;;;6.94;76.00
72855;BME280;60991;51.278;22.550;2023-05-07T01:58:39;99464.00;;;6.87;76.15
72855;BME280;60991;51.278;22.550;2023-05-07T02:00:10;99465.25;;;6.85;76.36
72855;BME280;60991;51.278;22.550;2023-05-07T02:01:40;99462.16;;;6.88;76.41
72855;BME280;60991;51.278;22.550;2023-05-07T02:03:10;99463.19;;;6.87;75.79
72855;BME280;60991;51.278;22.550;2023-05-07T02:04:40;99463.63;;;6.84;76.05
72855;BME280;60991;51.278;22.550;2023-05-07T02:06:11;99461.63;;;6.79;76.13
72855;BME280;60991;51.278;22.550;2023-05-07T02:07:41;99464.47;;;6.78;76.51
72855;BME280;60991;51.278;22.550;2023-05-07T02:09:11;99463.84;;;6.82;76.44
72855;BME280;60991;51.278;22.550;2023-05-07T02:10:41;99468.09;;;6.83;76.67
72855;BME280;60991;51.278;22.550;2023-05-07T02:12:12;99470.31;;;6.86;75.69
72855;BME280;60991;51.278;22.550;2023-05-07T02:13:42;99468.44;;;6.93;75.70
72855;BME280;60991;51.278;22.550;2023-05-07T02:15:12;99464.16;;;6.92;75.60
72855;BME280;60991;51.278;22.550;2023-05-07T02:16:42;99470.69;;;6.90;75.52
72855;BME280;60991;51.278;22.550;2023-05-07T02:18:12;99471.06;;;6.93;75.39
72855;BME280;60991;51.278;22.550;2023-05-07T02:19:43;99467.38;;;7.01;75.81
72855;BME280;60991;51.278;22.550;2023-05-07T02:21:13;99462.91;;;7.02;75.42
72855;BME280;60991;51.278;22.550;2023-05-07T02:22:43;99467.41;;;6.94;75.74
72855;BME280;60991;51.278;22.550;2023-05-07T02:24:13;99470.25;;;6.93;75.50
72855;BME280;60991;51.278;22.550;2023-05-07T02:25:44;99471.69;;;6.89;75.66
72855;BME280;60991;51.278;22.550;2023-05-07T02:27:14;99471.69;;;6.89;76.02
72855;BME280;60991;51.278;22.550;2023-05-07T02:28:44;99467.69;;;6.86;75.98
72855;BME280;60991;51.278;22.550;2023-05-07T02:30:17;99468.25;;;6.88;75.35
72855;BME280;60991;51.278;22.550;2023-05-07T02:31:47;99468.63;;;6.99;74.98
72855;BME280;60991;51.278;22.550;2023-05-07T02:33:17;99476.94;;;6.95;75.06
72855;BME280;60991;51.278;22.550;2023-05-07T02:34:50;99476.34;;;6.93;75.16
72855;BME280;60991;51.278;22.550;2023-05-07T02:36:20;99471.09;;;6.87;75.73
72855;BME280;60991;51.278;22.550;2023-05-07T02:37:50;99474.59;;;6.81;75.64
72855;BME280;60991;51.278;22.550;2023-05-07T02:39:21;99465.28;;;6.78;76.02
72855;BME280;60991;51.278;22.550;2023-05-07T02:40:51;99469.72;;;6.78;76.39
72855;BME280;60991;51.278;22.550;2023-05-07T02:42:21;99467.91;;;6.78;76.41
72855;BME280;60991;51.278;22.550;2023-05-07T02:43:51;99467.88;;;6.85;75.99
72855;BME280;60991;51.278;22.550;2023-05-07T02:45:22;99474.31;;;6.95;75.65
72855;BME280;60991;51.278;22.550;2023-05-07T02:46:52;99472.72;;;6.88;75.54
72855;BME280;60991;51.278;22.550;2023-05-07T02:48:22;99474.13;;;6.90;75.62
72855;BME280;60991;51.278;22.550;2023-05-07T02:49:53;99468.00;;;6.97;74.99
72855;BME280;60991;51.278;22.550;2023-05-07T02:51:23;99470.13;;;6.81;75.42
72855;BME280;60991;51.278;22.550;2023-05-07T02:52:54;99469.72;;;6.84;75.83
72855;BME280;60991;51.278;22.550;2023-05-07T02:54:24;99465.66;;;6.82;75.76
72855;BME280;60991;51.278;22.550;2023-05-07T02:55:56;99477.19;;;6.87;75.57
72855;BME280;60991;51.278;22.550;2023-05-07T02:57:27;99469.13;;;6.82;75.81
72855;BME280;60991;51.278;22.550;2023-05-07T02:58:57;99470.94;;;6.82;75.63
72855;BME280;60991;51.278;22.550;2023-05-07T03:00:27;99488.19;;;6.78;75.52
72855;BME280;60991;51.278;22.550;2023-05-07T03:01:57;99473.72;;;6.87;75.75
72855;BME280;60991;51.278;22.550;2023-05-07T03:03:27;99482.69;;;6.86;75.49
72855;BME280;60991;51.278;22.550;2023-05-07T03:04:58;99483.28;;;6.88;75.92
72855;BME280;60991;51.278;22.550;2023-05-07T03:06:28;99486.16;;;6.80;75.34
72855;BME280;60991;51.278;22.550;2023-05-07T03:07:58;99478.22;;;6.86;75.54
72855;BME280;60991;51.278;22.550;2023-05-07T03:09:28;99496.47;;;6.88;75.56
72855;BME280;60991;51.278;22.550;2023-05-07T03:10:58;99488.31;;;6.96;75.62
72855;BME280;60991;51.278;22.550;2023-05-07T03:12:29;99488.53;;;6.94;75.61
72855;BME280;60991;51.278;22.550;2023-05-07T03:13:59;99489.09;;;7.03;74.50
72855;BME280;60991;51.278;22.550;2023-05-07T03:15:29;99493.19;;;6.92;75.47
72855;BME280;60991;51.278;22.550;2023-05-07T03:16:59;99496.09;;;6.84;75.93
72855;BME280;60991;51.278;22.550;2023-05-07T03:18:30;99501.16;;;6.86;75.77
72855;BME280;60991;51.278;22.550;2023-05-07T03:20:00;99503.19;;;6.84;75.79
72855;BME280;60991;51.278;22.550;2023-05-07T03:21:30;99496.31;;;6.76;75.94
72855;BME280;60991;51.278;22.550;2023-05-07T03:23:00;99497.13;;;6.77;75.79
72855;BME280;60991;51.278;22.550;2023-05-07T03:24:30;99500.16;;;6.80;76.11
72855;BME280;60991;51.278;22.550;2023-05-07T03:26:01;99505.19;;;6.88;74.76
72855;BME280;60991;51.278;22.550;2023-05-07T03:27:31;99501.38;;;6.84;75.11
72855;BME280;60991;51.278;22.550;2023-05-07T03:29:01;99505.66;;;6.79;75.62
72855;BME280;60991;51.278;22.550;2023-05-07T03:30:31;99510.50;;;6.82;75.58
72855;BME280;60991;51.278;22.550;2023-05-07T03:32:01;99507.00;;;6.94;75.11
72855;BME280;60991;51.278;22.550;2023-05-07T03:33:35;99507.25;;;6.86;75.98
72855;BME280;60991;51.278;22.550;2023-05-07T03:35:05;99508.91;;;6.81;76.06
72855;BME280;60991;51.278;22.550;2023-05-07T03:36:36;99515.75;;;6.88;75.23
72855;BME280;60991;51.278;22.550;2023-05-07T03:38:06;99511.47;;;6.87;75.60
72855;BME280;60991;51.278;22.550;2023-05-07T03:39:37;99522.28;;;6.86;75.46
72855;BME280;60991;51.278;22.550;2023-05-07T03:41:07;99514.91;;;7.01;75.49
72855;BME280;60991;51.278;22.550;2023-05-07T03:42:37;99522.00;;;7.01;75.68
72855;BME280;60991;51.278;22.550;2023-05-07T03:44:07;99526.50;;;6.93;75.66
72855;BME280;60991;51.278;22.550;2023-05-07T03:45:38;99529.13;;;6.93;75.29
72855;BME280;60991;51.278;22.550;2023-05-07T03:47:08;99527.31;;;6.94;75.71
72855;BME280;60991;51.278;22.550;2023-05-07T03:48:38;99526.97;;;6.77;75.55
72855;BME280;60991;51.278;22.550;2023-05-07T03:50:09;99534.88;;;6.77;75.63
72855;BME280;60991;51.278;22.550;2023-05-07T03:51:39;99526.75;;;6.79;76.05
72855;BME280;60991;51.278;22.550;2023-05-07T03:53:09;99523.31;;;6.78;76.06
72855;BME280;60991;51.278;22.550;2023-05-07T03:54:40;99526.13;;;6.83;75.49
72855;BME280;60991;51.278;22.550;2023-05-07T03:56:10;99537.72;;;6.76;75.52
72855;BME280;60991;51.278;22.550;2023-05-07T03:57:40;99532.25;;;6.71;75.85
72855;BME280;60991;51.278;22.550;2023-05-07T03:59:12;99534.06;;;6.77;76.04
72855;BME280;60991;51.278;22.550;2023-05-07T04:00:42;99531.22;;;6.85;75.25
72855;BME280;60991;51.278;22.550;2023-05-07T04:02:12;99537.31;;;6.72;75.17
72855;BME280;60991;51.278;22.550;2023-05-07T04:03:43;99537.31;;;6.79;75.99
72855;BME280;60991;51.278;22.550;2023-05-07T04:05:13;99537.13;;;6.74;75.75
72855;BME280;60991;51.278;22.550;2023-05-07T04:06:44;99544.22;;;6.80;75.54
72855;BME280;60991;51.278;22.550;2023-05-07T04:08:14;99538.31;;;6.78;75.16
72855;BME280;60991;51.278;22.550;2023-05-07T04:09:44;99542.66;;;6.66;76.02
72855;BME280;60991;51.278;22.550;2023-05-07T04:11:14;99545.50;;;6.64;76.51
72855;BME280;60991;51.278;22.550;2023-05-07T04:12:44;99550.94;;;6.69;75.94
72855;BME280;60991;51.278;22.550;2023-05-07T04:14:15;99551.16;;;6.68;75.71
72855;BME280;60991;51.278;22.550;2023-05-07T04:15:45;99555.63;;;6.67;75.52
72855;BME280;60991;51.278;22.550;2023-05-07T04:17:15;99554.22;;;6.65;75.90
72855;BME280;60991;51.278;22.550;2023-05-07T04:18:45;99563.75;;;6.66;75.91
72855;BME280;60991;51.278;22.550;2023-05-07T04:20:16;99551.94;;;6.75;75.95
72855;BME280;60991;51.278;22.550;2023-05-07T04:21:47;99558.25;;;6.67;76.02
72855;BME280;60991;51.278;22.550;2023-05-07T04:23:17;99558.25;;;6.67;76.25
72855;BME280;60991;51.278;22.550;2023-05-07T04:24:47;99565.53;;;6.72;75.67
72855;BME280;60991;51.278;22.550;2023-05-07T04:26:17;99572.88;;;6.63;76.25
72855;BME280;60991;51.278;22.550;2023-05-07T04:27:47;99568.00;;;6.60;75.82
72855;BME280;60991;51.278;22.550;2023-05-07T04:29:18;99569.03;;;6.52;76.38
72855;BME280;60991;51.278;22.550;2023-05-07T04:30:48;99568.22;;;6.52;76.98
72855;BME280;60991;51.278;22.550;2023-05-07T04:32:18;99566.81;;;6.56;76.38
72855;BME280;60991;51.278;22.550;2023-05-07T04:33:49;99578.97;;;6.57;76.24
72855;BME280;60991;51.278;22.550;2023-05-07T04:35:19;99572.69;;;6.51;77.05
72855;BME280;60991;51.278;22.550;2023-05-07T04:36:49;99569.25;;;6.51;76.53
72855;BME280;60991;51.278;22.550;2023-05-07T04:38:19;99578.97;;;6.50;77.09
72855;BME280;60991;51.278;22.550;2023-05-07T04:39:49;99566.19;;;6.60;76.46
72855;BME280;60991;51.278;22.550;2023-05-07T04:41:20;99585.25;;;6.63;76.28
72855;BME280;60991;51.278;22.550;2023-05-07T04:42:50;99574.31;;;6.66;76.15
72855;BME280;60991;51.278;22.550;2023-05-07T04:44:20;99584.19;;;6.70;76.30
72855;BME280;60991;51.278;22.550;2023-05-07T04:45:51;99573.63;;;6.83;75.25
72855;BME280;60991;51.278;22.550;2023-05-07T04:47:21;99579.72;;;6.84;75.08
72855;BME280;60991;51.278;22.550;2023-05-07T04:48:51;99574.66;;;6.69;76.03
72855;BME280;60991;51.278;22.550;2023-05-07T04:50:22;99579.75;;;6.71;75.50
72855;BME280;60991;51.278;22.550;2023-05-07T04:51:52;99576.28;;;6.70;75.88
72855;BME280;60991;51.278;22.550;2023-05-07T04:53:22;99573.50;;;6.65;76.17
72855;BME280;60991;51.278;22.550;2023-05-07T04:54:52;99581.19;;;6.60;76.51
72855;BME280;60991;51.278;22.550;2023-05-07T04:56:22;99582.63;;;6.56;76.71
72855;BME280;60991;51.278;22.550;2023-05-07T04:57:53;99587.94;;;6.49;76.93
72855;BME280;60991;51.278;22.550;2023-05-07T04:59:23;99587.13;;;6.49;77.00
72855;BME280;60991;51.278;22.550;2023-05-07T05:00:53;99586.47;;;6.53;77.30
72855;BME280;60991;51.278;22.550;2023-05-07T05:02:23;99598.25;;;6.57;76.18
72855;BME280;60991;51.278;22.550;2023-05-07T05:03:53;99591.34;;;6.63;75.94
72855;BME280;60991;51.278;22.550;2023-05-07T05:05:24;99601.09;;;6.56;76.50
72855;BME280;60991;51.278;22.550;2023-05-07T05:06:54;99600.69;;;6.52;76.86
72855;BME280;60991;51.278;22.550;2023-05-07T05:08:24;99600.28;;;6.62;76.04
72855;BME280;60991;51.278;22.550;2023-05-07T05:09:54;99598.03;;;6.59;75.56
72855;BME280;60991;51.278;22.550;2023-05-07T05:11:25;99606.97;;;6.51;76.54
72855;BME280;60991;51.278;22.550;2023-05-07T05:12:55;99597.44;;;6.50;76.67
72855;BME280;60991;51.278;22.550;2023-05-07T05:14:25;99603.97;;;6.48;76.12
72855;BME280;60991;51.278;22.550;2023-05-07T05:15:55;99592.81;;;6.46;76.24
72855;BME280;60991;51.278;22.550;2023-05-07T05:17:26;99598.69;;;6.41;76.67
72855;BME280;60991;51.278;22.550;2023-05-07T05:18:56;99603.75;;;6.43;76.68
72855;BME280;60991;51.278;22.550;2023-05-07T05:20:26;99605.16;;;6.52;76.05
72855;BME280;60991;51.278;22.550;2023-05-07T05:21:56;99608.78;;;6.57;75.83
72855;BME280;60991;51.278;22.550;2023-05-07T05:23:26;99598.84;;;6.53;75.88
72855;BME280;60991;51.278;22.550;2023-05-07T05:24:57;99606.16;;;6.57;76.27
72855;BME280;60991;51.278;22.550;2023-05-07T05:26:27;99605.34;;;6.57;76.03
72855;BME280;60991;51.278;22.550;2023-05-07T05:27:57;99606.16;;;6.64;76.57
72855;BME280;60991;51.278;22.550;2023-05-07T05:29:27;99599.88;;;6.65;75.52
72855;BME280;60991;51.278;22.550;2023-05-07T05:30:58;99598.25;;;6.57;76.13
72855;BME280;60991;51.278;22.550;2023-05-07T05:32:28;99607.16;;;6.63;76.07
72855;BME280;60991;51.278;22.550;2023-05-07T05:33:58;99605.91;;;6.72;75.31
72855;BME280;60991;51.278;22.550;2023-05-07T05:35:29;99602.06;;;6.75;75.91
72855;BME280;60991;51.278;22.550;2023-05-07T05:36:59;99607.13;;;6.70;76.06
72855;BME280;60991;51.278;22.550;2023-05-07T05:38:29;99607.38;;;6.55;76.48
72855;BME280;60991;51.278;22.550;2023-05-07T05:40:00;99613.25;;;6.64;76.63
72855;BME280;60991;51.278;22.550;2023-05-07T05:41:30;99614.25;;;6.69;75.89
72855;BME280;60991;51.278;22.550;2023-05-07T05:43:00;99617.28;;;6.79;75.76
72855;BME280;60991;51.278;22.550;2023-05-07T05:44:30;99614.44;;;6.74;75.90
72855;BME280;60991;51.278;22.550;2023-05-07T05:46:00;99626.22;;;6.72;75.87
72855;BME280;60991;51.278;22.550;2023-05-07T05:47:31;99614.84;;;6.78;75.71
72855;BME280;60991;51.278;22.550;2023-05-07T05:49:01;99617.47;;;6.84;75.19
72855;BME280;60991;51.278;22.550;2023-05-07T05:50:31;99624.38;;;6.85;74.89
72855;BME280;60991;51.278;22.550;2023-05-07T05:52:02;99627.19;;;6.90;74.77
72855;BME280;60991;51.278;22.550;2023-05-07T05:53:32;99623.72;;;6.90;75.04
72855;BME280;60991;51.278;22.550;2023-05-07T05:55:02;99626.97;;;6.92;75.14
72855;BME280;60991;51.278;22.550;2023-05-07T05:56:33;99629.00;;;6.97;74.85
72855;BME280;60991;51.278;22.550;2023-05-07T05:58:03;99626.97;;;6.99;75.16
72855;BME280;60991;51.278;22.550;2023-05-07T05:59:33;99631.44;;;6.91;75.11
72855;BME280;60991;51.278;22.550;2023-05-07T06:01:04;99628.84;;;6.78;75.85
72855;BME280;60991;51.278;22.550;2023-05-07T06:02:34;99632.28;;;6.79;75.45
72855;BME280;60991;51.278;22.550;2023-05-07T06:04:04;99635.75;;;6.79;75.39
72855;BME280;60991;51.278;22.550;2023-05-07T06:05:35;99625.75;;;6.88;75.28
72855;BME280;60991;51.278;22.550;2023-05-07T06:07:05;99636.31;;;6.88;75.38
72855;BME280;60991;51.278;22.550;2023-05-07T06:08:35;99640.38;;;6.90;75.66
72855;BME280;60991;51.278;22.550;2023-05-07T06:10:06;99635.69;;;6.99;74.99
72855;BME280;60991;51.278;22.550;2023-05-07T06:11:36;99638.53;;;6.98;74.99
72855;BME280;60991;51.278;22.550;2023-05-07T06:13:07;99626.75;;;6.93;74.71
72855;BME280;60991;51.278;22.550;2023-05-07T06:14:37;99638.53;;;6.91;75.39
72855;BME280;60991;51.278;22.550;2023-05-07T06:16:07;99631.22;;;6.93;75.66
72855;BME280;60991;51.278;22.550;2023-05-07T06:17:37;99636.31;;;6.88;75.55
72855;BME280;60991;51.278;22.550;2023-05-07T06:19:08;99638.34;;;6.92;74.71
72855;BME280;60991;51.278;22.550;2023-05-07T06:20:38;99642.41;;;6.88;75.29
72855;BME280;60991;51.278;22.550;2023-05-07T06:22:08;99640.41;;;6.77;75.99
72855;BME280;60991;51.278;22.550;2023-05-07T06:23:38;99649.53;;;6.81;75.83
72855;BME280;60991;51.278;22.550;2023-05-07T06:25:09;99650.16;;;6.83;75.33
72855;BME280;60991;51.278;22.550;2023-05-07T06:26:39;99641.22;;;6.84;75.30
72855;BME280;60991;51.278;22.550;2023-05-07T06:28:09;99649.53;;;6.81;75.51
72855;BME280;60991;51.278;22.550;2023-05-07T06:29:39;99643.66;;;6.79;75.48
72855;BME280;60991;51.278;22.550;2023-05-07T06:31:18;99646.28;;;6.79;75.23
72855;BME280;60991;51.278;22.550;2023-05-07T06:32:48;99648.13;;;6.72;75.70
72855;BME280;60991;51.278;22.550;2023-05-07T06:34:18;99661.72;;;6.82;75.36
72855;BME280;60991;51.278;22.550;2023-05-07T06:35:49;99655.44;;;6.83;74.96
72855;BME280;60991;51.278;22.550;2023-05-07T06:37:19;99652.59;;;6.78;75.44
72855;BME280;60991;51.278;22.550;2023-05-07T06:38:49;99663.94;;;6.72;75.64
72855;BME280;60991;51.278;22.550;2023-05-07T06:40:19;99660.91;;;6.75;75.44
72855;BME280;60991;51.278;22.550;2023-05-07T06:41:49;99659.28;;;6.81;75.59
72855;BME280;60991;51.278;22.550;2023-05-07T06:43:19;99671.63;;;6.87;75.60
72855;BME280;60991;51.278;22.550;2023-05-07T06:44:50;99673.66;;;6.91;75.32
72855;BME280;60991;51.278;22.550;2023-05-07T06:46:20;99672.84;;;6.98;75.05
72855;BME280;60991;51.278;22.550;2023-05-07T06:47:50;99672.59;;;7.06;74.87
72855;BME280;60991;51.278;22.550;2023-05-07T06:49:20;99675.06;;;7.01;74.65
72855;BME280;60991;51.278;22.550;2023-05-07T06:50:51;99675.69;;;7.03;75.08
72855;BME280;60991;51.278;22.550;2023-05-07T06:52:21;99678.50;;;7.08;75.25
72855;BME280;60991;51.278;22.550;2023-05-07T06:53:51;99679.72;;;7.05;74.82
72855;BME280;60991;51.278;22.550;2023-05-07T06:55:21;99682.75;;;7.15;75.00
72855;BME280;60991;51.278;22.550;2023-05-07T06:56:51;99688.06;;;6.95;75.27
72855;BME280;60991;51.278;22.550;2023-05-07T06:58:22;99685.84;;;6.92;75.47
72855;BME280;60991;51.278;22.550;2023-05-07T06:59:52;99690.72;;;6.95;75.12
72855;BME280;60991;51.278;22.550;2023-05-07T07:01:22;99685.84;;;6.99;75.79
72855;BME280;60991;51.278;22.550;2023-05-07T07:02:54;99689.69;;;7.03;75.31
72855;BME280;60991;51.278;22.550;2023-05-07T07:04:24;99689.69;;;7.03;75.32
72855;BME280;60991;51.278;22.550;2023-05-07T07:05:57;99694.31;;;7.08;75.29
72855;BME280;60991;51.278;22.550;2023-05-07T07:07:27;99694.72;;;7.11;74.80
72855;BME280;60991;51.278;22.550;2023-05-07T07:08:59;99689.84;;;7.21;74.29
72855;BME280;60991;51.278;22.550;2023-05-07T07:10:29;99696.97;;;7.14;74.69
72855;BME280;60991;51.278;22.550;2023-05-07T07:11:59;99696.16;;;7.14;74.96
72855;BME280;60991;51.278;22.550;2023-05-07T07:13:29;99693.72;;;7.06;75.03
72855;BME280;60991;51.278;22.550;2023-05-07T07:15:00;99701.22;;;7.09;74.77
72855;BME280;60991;51.278;22.550;2023-05-07T07:16:30;99710.59;;;7.05;75.41
72855;BME280;60991;51.278;22.550;2023-05-07T07:18:00;99713.81;;;7.20;74.94
72855;BME280;60991;51.278;22.550;2023-05-07T07:19:30;99707.31;;;7.22;74.47
72855;BME280;60991;51.278;22.550;2023-05-07T07:21:00;99716.81;;;7.30;74.18
72855;BME280;60991;51.278;22.550;2023-05-07T07:22:31;99713.00;;;7.19;74.90
72855;BME280;60991;51.278;22.550;2023-05-07T07:24:01;99715.06;;;7.04;74.84
72855;BME280;60991;51.278;22.550;2023-05-07T07:25:31;99720.13;;;7.06;75.51
72855;BME280;60991;51.278;22.550;2023-05-07T07:27:02;99712.19;;;7.06;75.52
72855;BME280;60991;51.278;22.550;2023-05-07T07:28:32;99712.81;;;7.08;75.06
72855;BME280;60991;51.278;22.550;2023-05-07T07:30:02;99715.44;;;7.08;74.68
72855;BME280;60991;51.278;22.550;2023-05-07T07:31:33;99726.03;;;7.01;74.95
72855;BME280;60991;51.278;22.550;2023-05-07T07:33:03;99716.25;;;7.08;74.70
72855;BME280;60991;51.278;22.550;2023-05-07T07:34:33;99725.19;;;7.07;74.37
72855;BME280;60991;51.278;22.550;2023-05-07T07:36:05;99731.72;;;7.05;75.21
72855;BME280;60991;51.278;22.550;2023-05-07T07:37:35;99733.91;;;7.14;74.25
72855;BME280;60991;51.278;22.550;2023-05-07T07:39:06;99733.09;;;7.07;74.64
72855;BME280;60991;51.278;22.550;2023-05-07T07:40:36;99741.88;;;7.01;75.10
72855;BME280;60991;51.278;22.550;2023-05-07T07:42:06;99740.25;;;7.00;75.82
72855;BME280;60991;51.278;22.550;2023-05-07T07:43:36;99740.41;;;7.05;75.13
72855;BME280;60991;51.278;22.550;2023-05-07T07:45:07;99745.09;;;7.10;75.09
72855;BME280;60991;51.278;22.550;2023-05-07T07:46:37;99742.25;;;7.11;75.14
72855;BME280;60991;51.278;22.550;2023-05-07T07:48:07;99750.38;;;7.16;74.87
72855;BME280;60991;51.278;22.550;2023-05-07T07:49:38;99753.81;;;7.23;74.52
72855;BME280;60991;51.278;22.550;2023-05-07T07:51:08;99742.41;;;7.29;74.62
72855;BME280;60991;51.278;22.550;2023-05-07T07:52:38;99760.50;;;7.33;74.35
72855;BME280;60991;51.278;22.550;2023-05-07T07:54:08;99754.78;;;7.36;74.33
72855;BME280;60991;51.278;22.550;2023-05-07T07:55:39;99756.03;;;7.33;74.81
72855;BME280;60991;51.278;22.550;2023-05-07T07:57:09;99753.78;;;7.30;74.29
72855;BME280;60991;51.278;22.550;2023-05-07T07:58:40;99760.28;;;7.34;74.63